Time;durP1;ratioP1;P1;durP2;ratioP2;P2;SDS_P1;SDS_P2;PMS_P1;PMS_P2;Temp;Humidity;BMP_temperature;BMP_pressure;BME280_temperature;BME280_humidity;BME280_pressure;Samples;Min_cycle;Max_cycle;Signal;HPM_P1;HPM_P2
2022/09/07 00:00:57;;;;;;;7.70;4.40;;;;;;;16.62;76.81;101075.59;5017767;28;20156;-78
2022/09/07 00:03:23;;;;;;;6.05;4.22;;;;;;;16.44;76.87;101047.59;5018674;28;21102;-76
2022/09/07 00:05:50;;;;;;;6.03;3.92;;;;;;;16.00;76.39;100957.28;4986482;28;20500;-76
2022/09/07 00:08:18;;;;;;;8.57;4.60;;;;;;;15.93;75.90;100941.50;5018014;28;20115;-78
2022/09/07 00:10:51;;;;;;;7.70;3.88;;;;;;;16.01;76.69;100964.34;5017218;28;20036;-76
2022/09/07 00:13:17;;;;;;;5.55;3.83;;;;;;;15.79;75.62;100924.03;4994059;28;20218;-79
2022/09/07 00:15:42;;;;;;;6.55;4.35;;;;;;;15.75;77.06;100916.16;4994105;28;20585;-76
2022/09/07 00:18:08;;;;;;;8.15;4.72;;;;;;;16.29;77.09;101030.13;4988435;28;20064;-76
2022/09/07 00:20:34;;;;;;;5.88;4.38;;;;;;;16.34;82.62;101053.91;5003475;28;20121;-74
2022/09/07 00:22:59;;;;;;;7.20;4.38;;;;;;;15.29;80.18;100924.59;4992223;28;20596;-76
2022/09/07 00:25:25;;;;;;;9.40;5.13;;;;;;;16.22;79.84;101084.06;4996725;28;20165;-76
2022/09/07 00:27:50;;;;;;;13.90;5.80;;;;;;;15.16;79.94;100877.16;4990572;28;20592;-76
2022/09/07 00:30:16;;;;;;;6.25;3.95;;;;;;;16.35;79.07;101063.63;4994120;28;20076;-76
2022/09/07 00:32:41;;;;;;;9.25;4.90;;;;;;;16.37;79.27;101086.53;4994228;28;20048;-76
2022/09/07 00:35:07;;;;;;;12.93;4.68;;;;;;;15.93;79.46;101002.38;4996168;28;20390;-77
2022/09/07 00:37:33;;;;;;;14.15;5.38;;;;;;;16.14;80.96;101084.19;4994930;28;20040;-75
2022/09/07 00:39:58;;;;;;;6.35;4.70;;;;;;;15.66;82.56;100971.78;4983116;28;20652;-76
2022/09/07 00:42:24;;;;;;;8.63;5.20;;;;;;;16.21;84.62;101074.41;4996144;28;20057;-75
2022/09/07 00:45:01;;;;;;;9.68;5.82;;;;;;;16.11;85.93;101078.94;4994883;28;20049;-74
2022/09/07 00:48:02;;;;;;;11.63;6.55;;;;;;;15.81;86.76;101074.88;4995573;28;20084;-75
2022/09/07 00:50:38;;;;;;;11.40;6.80;;;;;;;15.87;86.60;101064.19;4973679;28;20070;-75
2022/09/07 00:53:09;;;;;;;12.90;7.28;;;;;;;15.70;87.56;101069.69;5001876;28;20045;-78
2022/09/07 00:55:37;;;;;;;12.43;7.03;;;;;;;15.66;89.08;101074.97;4996121;28;20033;-76
2022/09/07 00:58:03;;;;;;;15.88;7.32;;;;;;;13.79;89.75;100792.16;4996548;28;20769;-75
2022/09/07 01:00:30;;;;;;;11.13;6.38;;;;;;;15.11;88.77;100992.66;5000197;28;20049;-75
2022/09/07 01:02:57;;;;;;;9.15;7.70;;;;;;;15.69;88.95;101069.69;5010198;28;20149;-77
2022/09/07 01:05:30;;;;;;;10.43;6.40;;;;;;;15.35;89.46;101014.47;5009922;28;20058;-74
2022/09/07 01:07:57;;;;;;;14.55;7.20;;;;;;;14.96;89.54;100987.50;5005113;28;20042;-74
2022/09/07 01:10:25;;;;;;;14.52;7.65;;;;;;;15.55;89.29;101072.47;4996955;28;20104;-75
2022/09/07 01:12:51;;;;;;;13.75;7.15;;;;;;;14.40;89.15;100909.56;4976621;28;20058;-75
2022/09/07 01:15:19;;;;;;;10.95;8.43;;;;;;;15.10;90.28;101040.25;4995606;28;20048;-77
2022/09/07 01:17:59;;;;;;;9.82;7.32;;;;;;;15.22;90.19;101068.34;4995702;28;20045;-76
2022/09/07 01:20:36;;;;;;;13.55;7.80;;;;;;;15.41;90.10;101083.16;4989944;28;20048;-76
2022/09/07 01:23:20;;;;;;;11.40;7.63;;;;;;;15.49;89.68;101088.38;4996098;28;20123;-75
2022/09/07 01:25:58;;;;;;;10.70;8.32;;;;;;;15.67;89.32;101095.28;4989042;28;20042;-76
2022/09/07 01:28:27;;;;;;;11.80;8.02;;;;;;;14.46;88.72;100910.41;4996473;28;20590;-78
2022/09/07 01:30:58;;;;;;;17.65;7.90;;;;;;;15.31;89.54;101089.41;4993383;28;20592;-77
2022/09/07 01:34:05;;;;;;;12.63;8.52;;;;;;;15.25;89.69;101081.56;4998399;28;20057;-77
2022/09/07 01:36:34;;;;;;;13.27;8.25;;;;;;;15.42;89.73;101082.25;4979846;28;20164;-75
2022/09/07 01:39:02;;;;;;;9.15;7.45;;;;;;;15.29;90.96;101092.09;4994975;28;20046;-75
2022/09/07 01:42:00;;;;;;;13.43;8.05;;;;;;;15.45;90.40;101086.66;4994471;28;20057;-76
2022/09/07 01:44:25;;;;;;;13.75;8.00;;;;;;;15.37;91.34;101082.31;4993145;28;20053;-75
2022/09/07 01:46:52;;;;;;;12.32;8.25;;;;;;;14.10;92.28;100917.69;5000469;28;20030;-75
2022/09/07 01:49:33;;;;;;;26.35;9.57;;;;;;;14.36;92.60;100933.34;4996415;28;20048;-78
2022/09/07 01:52:06;;;;;;;14.52;9.02;;;;;;;15.11;92.58;101092.22;4999529;28;20053;-77
2022/09/07 01:54:46;;;;;;;13.98;7.88;;;;;;;14.19;92.49;100961.66;4984859;28;20056;-77
2022/09/07 01:57:21;;;;;;;12.25;7.75;;;;;;;14.44;91.85;100959.69;5005041;28;20056;-76
2022/09/07 02:00:03;;;;;;;11.85;8.20;;;;;;;15.05;91.92;101069.34;4994448;28;20085;-76
2022/09/07 02:02:31;;;;;;;20.00;7.47;;;;;;;14.75;92.56;101033.50;5009789;28;20037;-76
2022/09/07 02:05:04;;;;;;;13.55;6.97;;;;;;;14.03;93.55;100929.19;4995866;28;20096;-76
2022/09/07 02:07:41;;;;;;;12.05;7.63;;;;;;;15.08;94.13;101086.97;4999292;28;20839;-76
2022/09/07 02:10:36;;;;;;;13.30;7.95;;;;;;;14.28;95.29;100936.94;4996355;28;20108;-75
2022/09/07 02:13:28;;;;;;;18.85;8.25;;;;;;;15.00;93.85;101076.44;4991870;28;20100;-76
2022/09/07 02:16:20;;;;;;;14.32;7.07;;;;;;;14.91;93.98;101053.63;5000184;28;20045;-76
2022/09/07 02:18:50;;;;;;;9.73;7.88;;;;;;;14.30;94.59;100977.41;4993577;28;20054;-75
2022/09/07 02:21:20;;;;;;;12.00;7.97;;;;;;;14.70;94.83;101041.44;4994534;28;20057;-75
2022/09/07 02:23:51;;;;;;;15.63;7.18;;;;;;;14.73;94.38;101078.41;4992819;28;20073;-76
2022/09/07 02:26:24;;;;;;;12.57;8.57;;;;;;;13.36;96.01;100896.09;4980029;28;20058;-75
2022/09/07 02:28:50;;;;;;;15.13;7.72;;;;;;;14.64;95.15;101070.53;4985863;28;20093;-76
2022/09/07 02:31:16;;;;;;;12.25;7.97;;;;;;;13.69;94.95;100915.28;4995624;28;20444;-75
2022/09/07 02:33:41;;;;;;;14.10;7.00;;;;;;;13.65;94.63;100906.53;4992539;28;20129;-78
2022/09/07 02:36:08;;;;;;;13.60;7.80;;;;;;;14.60;95.05;101052.94;4994231;28;20048;-76
2022/09/07 02:38:34;;;;;;;15.13;8.05;;;;;;;14.80;92.88;101059.84;4988932;28;20042;-76
2022/09/07 02:41:01;;;;;;;9.98;8.45;;;;;;;14.90;92.51;101061.56;4993832;28;20046;-76
2022/09/07 02:43:29;;;;;;;16.85;8.45;;;;;;;13.87;92.80;100928.38;5009116;28;20060;-77
2022/09/07 02:46:29;;;;;;;17.63;7.30;;;;;;;14.63;93.49;101066.13;4998953;28;20049;-76
2022/09/07 02:49:32;;;;;;;10.27;7.13;;;;;;;14.71;93.30;101060.81;4990610;28;20076;-76
2022/09/07 02:52:25;;;;;;;13.43;6.60;;;;;;;14.80;93.75;101059.84;4997388;28;20097;-74
2022/09/07 02:55:23;;;;;;;8.80;6.72;;;;;;;14.76;93.64;101059.00;4998320;28;20163;-75
2022/09/07 02:57:57;;;;;;;8.27;6.75;;;;;;;14.92;92.54;101062.44;4983505;28;20058;-75
2022/09/07 03:00:25;;;;;;;14.30;7.07;;;;;;;13.59;93.15;100900.41;4988016;28;20056;-75
2022/09/07 03:03:21;;;;;;;12.73;6.80;;;;;;;14.51;93.34;101047.69;4990469;28;20064;-76
2022/09/07 03:05:52;;;;;;;8.40;6.72;;;;;;;14.32;92.78;101007.31;4989206;28;20052;-76
2022/09/07 03:08:28;;;;;;;14.63;6.45;;;;;;;13.52;92.57;100867.91;4998892;28;20052;-76
2022/09/07 03:10:56;;;;;;;9.93;6.47;;;;;;;14.77;93.06;101056.38;4995643;28;20049;-76
2022/09/07 03:13:24;;;;;;;17.42;7.28;;;;;;;13.92;93.80;100910.75;4996203;28;20052;-76
2022/09/07 03:15:49;;;;;;;9.50;6.85;;;;;;;14.73;93.83;101035.25;4991052;28;20049;-75
2022/09/07 03:18:15;;;;;;;13.70;7.60;;;;;;;14.80;93.55;101066.03;4994241;28;20762;-75
2022/09/07 03:20:40;;;;;;;11.18;7.90;;;;;;;13.86;93.33;100905.53;4997707;28;20064;-74
2022/09/07 03:23:06;;;;;;;9.45;6.25;;;;;;;14.72;93.69;101044.06;4998452;28;20053;-75
2022/09/07 03:25:32;;;;;;;20.30;8.48;;;;;;;14.90;94.49;101072.13;4998327;28;20143;-76
2022/09/07 03:27:57;;;;;;;20.38;8.38;;;;;;;13.86;95.16;100902.00;4996966;28;20049;-76
2022/09/07 03:30:23;;;;;;;13.18;8.30;;;;;;;14.94;94.48;101081.78;4995918;28;20050;-77
2022/09/07 03:32:48;;;;;;;11.52;8.38;;;;;;;14.36;93.98;101014.34;5006837;28;20143;-76
2022/09/07 03:35:15;;;;;;;9.35;5.90;;;;;;;14.08;93.91;100960.81;5011752;28;20041;-76
2022/09/07 03:37:41;;;;;;;15.18;7.55;;;;;;;14.22;94.42;100972.19;5001308;28;20064;-75
2022/09/07 03:40:11;;;;;;;10.65;7.40;;;;;;;14.68;94.02;101074.91;4996637;28;20050;-75
2022/09/07 03:42:37;;;;;;;9.02;6.82;;;;;;;14.36;95.23;101085.63;4994805;28;20053;-75
2022/09/07 03:45:05;;;;;;;11.55;7.43;;;;;;;14.19;96.65;101087.44;4988715;28;20516;-76
2022/09/07 03:47:38;;;;;;;18.83;8.50;;;;;;;13.30;96.97;100918.09;4995409;28;20777;-77
2022/09/07 03:50:04;;;;;;;20.23;7.57;;;;;;;14.02;97.13;101014.50;4978379;28;23648;-76
2022/09/07 03:52:29;;;;;;;14.93;7.25;;;;;;;13.58;97.14;100983.00;4997289;28;20934;-77
2022/09/07 03:54:55;;;;;;;23.08;6.78;;;;;;;14.06;97.98;101100.69;4997029;28;20061;-77
2022/09/07 03:57:21;;;;;;;10.48;7.60;;;;;;;13.87;99.29;101101.63;4981986;28;20131;-77
2022/09/07 03:59:46;;;;;;;13.20;7.18;;;;;;;13.07;98.55;100965.53;4997868;28;20065;-76
2022/09/07 04:02:12;;;;;;;10.15;7.20;;;;;;;13.17;98.16;100965.50;4995827;28;20136;-76
2022/09/07 04:04:38;;;;;;;12.90;7.75;;;;;;;13.06;98.22;100974.31;4993008;28;20420;-75
2022/09/07 04:07:05;;;;;;;10.93;7.30;;;;;;;13.37;98.98;101063.94;4997611;28;20406;-76
2022/09/07 04:09:31;;;;;;;14.38;9.00;;;;;;;12.60;99.02;100902.38;4998644;28;20049;-75
2022/09/07 04:11:56;;;;;;;12.93;7.80;;;;;;;13.37;98.86;101048.09;4995117;28;20069;-76
2022/09/07 04:14:22;;;;;;;15.23;8.15;;;;;;;13.39;100.00;101082.34;4994010;28;20081;-76
2022/09/07 04:16:47;;;;;;;12.05;7.82;;;;;;;13.60;100.00;101099.91;5002851;28;20056;-77
2022/09/07 04:19:13;;;;;;;19.48;7.40;;;;;;;13.49;100.00;101085.00;4991101;28;20088;-76
2022/09/07 04:21:39;;;;;;;11.15;7.90;;;;;;;12.66;100.00;100903.22;4975987;28;20069;-77
2022/09/07 04:24:04;;;;;;;19.38;8.00;;;;;;;13.75;99.13;101067.38;4994374;28;20046;-76
2022/09/07 04:26:32;;;;;;;12.63;7.88;;;;;;;12.88;98.83;100945.38;4995382;28;20598;-77
2022/09/07 04:29:00;;;;;;;13.18;7.30;;;;;;;12.81;98.33;100947.13;4997903;28;20048;-76
2022/09/07 04:31:26;;;;;;;12.30;7.70;;;;;;;13.07;98.01;100980.47;4989965;28;20037;-77
2022/09/07 04:33:51;;;;;;;12.23;8.13;;;;;;;13.86;97.90;101116.59;4992519;28;20117;-77
2022/09/07 04:36:20;;;;;;;12.10;7.93;;;;;;;13.26;97.70;100995.38;4981381;28;20663;-78
2022/09/07 04:38:46;;;;;;;12.98;7.35;;;;;;;13.12;95.75;100967.28;4977789;28;20046;-76
2022/09/07 04:41:16;;;;;;;12.05;7.43;;;;;;;13.08;96.24;100956.72;4995350;28;20053;-77
2022/09/07 04:43:43;;;;;;;14.85;8.05;;;;;;;13.20;95.92;100947.06;4993579;28;20033;-76
2022/09/07 04:46:19;;;;;;;16.45;7.55;;;;;;;13.23;95.63;100955.84;4995312;28;21512;-78
2022/09/07 04:48:54;;;;;;;12.07;8.25;;;;;;;14.31;94.70;101117.31;5000576;28;20145;-76
2022/09/07 04:51:27;;;;;;;11.15;7.85;;;;;;;14.37;93.55;101126.97;4994194;28;20052;-77
2022/09/07 04:53:53;;;;;;;;;;;;;;;14.44;93.46;101125.19;4994873;28;20279;-76
2022/09/07 04:56:20;;;;;;;15.35;7.78;;;;;;;13.78;92.79;101001.41;4994396;28;19921;-75
2022/09/07 04:58:46;;;;;;;9.38;6.70;;;;;;;14.25;91.52;101075.09;4993889;28;20041;-75
2022/09/07 05:01:15;;;;;;;11.25;7.30;;;;;;;14.44;91.19;101077.66;5001664;28;20043;-76
2022/09/07 05:03:41;;;;;;;14.25;9.10;;;;;;;15.20;89.65;101147.69;4995409;28;20429;-77
2022/09/07 05:06:07;;;;;;;10.52;7.28;;;;;;;15.91;84.22;101124.16;4999233;28;20129;-76
2022/09/07 05:08:38;;;;;;;15.13;7.10;;;;;;;16.59;81.19;101096.84;5005952;28;20041;-75
2022/09/07 05:11:04;;;;;;;11.80;6.35;;;;;;;17.23;76.84;101111.84;4992586;28;20049;-76
2022/09/07 05:13:30;;;;;;;17.02;8.15;;;;;;;17.51;76.35;101119.28;4997321;28;20053;-80
2022/09/07 05:15:57;;;;;;;14.20;7.78;;;;;;;18.35;72.23;101136.34;4996935;28;20056;-77
2022/09/07 05:18:23;;;;;;;15.70;7.35;;;;;;;17.96;70.36;100986.66;4994931;28;20054;-78
2022/09/07 05:20:48;;;;;;;11.60;6.25;;;;;;;18.99;69.37;101143.88;5003833;28;20054;-79
2022/09/07 05:23:15;;;;;;;13.50;8.30;;;;;;;17.88;69.55;101013.34;4993842;28;20438;-77
2022/09/07 05:25:44;;;;;;;26.35;9.65;;;;;;;18.86;69.23;101121.97;4996832;28;20042;-75
2022/09/07 05:28:11;;;;;;;18.58;7.22;;;;;;;18.29;68.11;100994.78;4981721;28;20085;-78
2022/09/07 05:30:37;;;;;;;11.68;6.10;;;;;;;19.49;67.55;101139.09;5006293;28;20057;-78
2022/09/07 05:33:04;;;;;;;13.90;7.70;;;;;;;19.49;67.89;101127.56;4998547;28;20505;-79
2022/09/07 05:35:29;;;;;;;15.73;7.18;;;;;;;19.13;66.76;101066.38;4993377;28;20061;-78
2022/09/07 05:37:55;;;;;;;10.02;6.15;;;;;;;19.93;64.06;101098.94;4995210;28;21970;-79
2022/09/07 05:40:21;;;;;;;20.40;7.55;;;;;;;19.78;64.45;101017.63;5008516;28;20112;-81
2022/09/07 05:42:47;;;;;;;8.65;6.03;;;;;;;20.72;64.78;101137.50;4992606;28;20520;-78
2022/09/07 05:45:12;;;;;;;10.65;6.15;;;;;;;20.36;62.29;101140.34;5008887;28;20045;-77
2022/09/07 05:47:38;;;;;;;10.45;6.82;;;;;;;19.59;63.50;101113.09;5010059;28;20599;-76
2022/09/07 05:50:08;;;;;;;14.82;6.18;;;;;;;19.66;64.31;101141.31;5005700;28;20045;-78
2022/09/07 05:52:34;;;;;;;15.05;6.95;;;;;;;19.64;63.57;101131.63;5011140;28;20040;-77
2022/09/07 05:55:00;;;;;;;12.45;7.38;;;;;;;20.18;60.86;101128.41;5011445;28;20084;-80
2022/09/07 05:57:25;;;;;;;9.07;5.88;;;;;;;19.86;61.38;100991.69;4991513;28;20144;-78
2022/09/07 05:59:51;;;;;;;12.15;7.43;;;;;;;20.02;61.81;101138.63;5012250;28;20161;-76
2022/09/07 06:02:16;;;;;;;13.02;6.82;;;;;;;19.45;63.14;101118.78;5009378;28;20560;-76
2022/09/07 06:04:42;;;;;;;10.27;6.45;;;;;;;19.90;63.57;101118.53;5008755;28;20029;-78
2022/09/07 06:07:12;;;;;;;13.50;5.35;;;;;;;20.12;62.68;101096.63;4992556;28;20405;-76
2022/09/07 06:09:38;;;;;;;10.70;6.15;;;;;;;20.33;61.97;101095.13;5012143;28;20049;-79
2022/09/07 06:12:04;;;;;;;14.18;6.68;;;;;;;20.59;60.28;101102.38;5006461;28;20065;-79
2022/09/07 06:14:30;;;;;;;12.27;5.63;;;;;;;20.47;61.22;101138.22;5009966;28;20187;-77
2022/09/07 06:16:56;;;;;;;9.43;6.25;;;;;;;19.90;61.43;101130.94;5013190;28;20044;-77
2022/09/07 06:19:22;;;;;;;22.27;7.55;;;;;;;19.59;61.54;101113.97;5013134;28;20033;-77
2022/09/07 06:21:47;;;;;;;18.27;8.45;;;;;;;19.05;62.92;100976.13;5010646;28;20485;-79
2022/09/07 06:24:13;;;;;;;10.05;5.88;;;;;;;19.01;64.59;101026.78;5016334;28;20323;-76
2022/09/07 06:26:40;;;;;;;12.70;6.20;;;;;;;18.77;64.86;100991.91;5026322;28;20045;-77
2022/09/07 06:29:05;;;;;;;13.85;7.47;;;;;;;18.39;66.36;101037.97;5017148;28;20049;-78
2022/09/07 06:31:31;;;;;;;12.40;6.85;;;;;;;19.44;66.40;101119.69;5012985;28;20045;-78
2022/09/07 06:33:57;;;;;;;12.48;6.78;;;;;;;19.09;66.42;101006.19;4997339;28;20292;-79
2022/09/07 06:36:28;;;;;;;13.05;6.82;;;;;;;19.48;64.70;101126.69;5010024;28;20056;-80
2022/09/07 06:38:55;;;;;;;8.93;6.28;;;;;;;18.58;66.93;100998.53;5009356;28;20054;-79
2022/09/07 06:41:28;;;;;;;12.73;5.95;;;;;;;18.90;65.04;101013.75;5012466;28;20257;-80
2022/09/07 06:43:55;;;;;;;13.98;7.13;;;;;;;19.06;66.39;101094.03;4996263;28;20029;-81
2022/09/07 06:46:22;;;;;;;16.92;6.25;;;;;;;19.57;63.78;101136.22;5016450;28;20049;-78
2022/09/07 06:48:51;;;;;;;14.45;7.47;;;;;;;19.50;64.62;101147.94;5012086;28;20122;-76
2022/09/07 06:51:19;;;;;;;15.13;6.15;;;;;;;18.06;66.03;100996.16;5007858;28;20076;-78
2022/09/07 06:53:47;;;;;;;16.33;6.18;;;;;;;18.81;67.52;101037.91;5010654;28;20494;-77
2022/09/07 06:56:14;;;;;;;15.20;6.22;;;;;;;18.55;64.80;101003.03;5011934;28;20053;-77
2022/09/07 06:58:40;;;;;;;15.55;7.18;;;;;;;18.98;64.60;101086.25;5012777;28;20076;-76
2022/09/07 07:01:19;;;;;;;13.10;6.57;;;;;;;18.93;63.64;101064.19;5009994;28;20132;-78
2022/09/07 07:03:45;;;;;;;9.45;5.50;;;;;;;19.38;65.41;101135.81;5005890;28;20120;-78
2022/09/07 07:06:11;;;;;;;18.65;6.30;;;;;;;18.77;64.30;101039.75;5010199;28;20057;-76
2022/09/07 07:08:38;;;;;;;20.92;7.57;;;;;;;19.33;63.50;101148.38;5005637;28;20140;-75
2022/09/07 07:11:08;;;;;;;9.80;4.20;;;;;;;19.16;64.02;101147.00;5012679;28;20045;-77
2022/09/07 07:13:42;;;;;;;6.38;3.67;;;;;;;19.04;63.63;101133.13;5022088;28;20115;-75
2022/09/07 07:16:09;;;;;;;7.20;3.88;;;;;;;19.42;62.72;101155.25;5019927;28;20057;-76
2022/09/07 07:18:35;;;;;;;8.73;4.40;;;;;;;18.61;62.66;101017.06;5020416;28;20069;-78
2022/09/07 07:21:06;;;;;;;6.25;4.38;;;;;;;18.46;63.03;101020.97;5015919;28;20119;-80
2022/09/07 07:23:35;;;;;;;9.57;4.65;;;;;;;19.57;62.27;101162.84;5018574;28;20053;-78
2022/09/07 07:26:03;;;;;;;10.27;4.38;;;;;;;19.34;64.16;101145.69;5021416;28;20041;-76
2022/09/07 07:28:29;;;;;;;11.40;5.13;;;;;;;19.03;63.00;101105.63;5017482;28;20033;-75
2022/09/07 07:30:59;;;;;;;8.70;5.45;;;;;;;19.27;63.87;101154.72;5018164;28;20370;-76
2022/09/07 07:33:29;;;;;;;10.90;4.93;;;;;;;18.87;64.91;101041.31;5009647;28;20041;-78
2022/09/07 07:35:54;;;;;;;8.52;4.68;;;;;;;19.40;63.92;101137.53;5007454;28;20065;-76
2022/09/07 07:38:20;;;;;;;9.15;4.82;;;;;;;18.04;62.82;100905.00;5013790;28;20085;-77
2022/09/07 07:40:52;;;;;;;11.65;6.78;;;;;;;18.08;62.93;100898.72;5011000;28;20037;-76
2022/09/07 07:43:18;;;;;;;8.13;4.40;;;;;;;19.49;65.17;101099.16;5016155;28;20046;-78
2022/09/07 07:45:44;;;;;;;18.67;6.60;;;;;;;19.73;63.27;101147.38;5010909;28;20464;-74
2022/09/07 07:48:10;;;;;;;8.88;5.72;;;;;;;19.70;63.17;101140.34;4992922;28;20045;-77
2022/09/07 07:50:36;;;;;;;11.60;4.22;;;;;;;19.52;64.06;101103.53;4978093;28;20076;-77
2022/09/07 07:53:02;;;;;;;13.80;6.03;;;;;;;19.82;62.68;101125.84;5013029;28;20509;-77
2022/09/07 07:55:29;;;;;;;8.18;5.55;;;;;;;19.91;62.49;101132.72;5002859;28;20095;-78
2022/09/07 07:57:54;;;;;;;17.23;5.60;;;;;;;19.84;62.73;101133.81;5010198;28;20107;-76
2022/09/07 08:00:21;;;;;;;14.77;3.92;;;;;;;19.82;62.77;101107.19;4990987;28;20057;-77
2022/09/07 08:02:46;;;;;;;15.75;5.18;;;;;;;19.23;62.16;100990.72;4993450;28;20434;-77
2022/09/07 08:05:12;;;;;;;8.60;5.20;;;;;;;19.53;63.54;101012.97;5013728;28;20097;-77
2022/09/07 08:07:37;;;;;;;18.10;6.30;;;;;;;19.47;64.14;101021.13;5014712;28;20030;-79
2022/09/07 08:10:03;;;;;;;11.60;5.15;;;;;;;20.06;62.52;101131.41;5009629;28;20644;-77
2022/09/07 08:12:30;;;;;;;23.98;4.88;;;;;;;19.33;63.43;101037.47;5014608;28;20053;-80
2022/09/07 08:14:55;;;;;;;8.35;5.13;;;;;;;20.22;63.55;101135.41;5028441;28;20052;-75
2022/09/07 08:17:21;;;;;;;8.55;5.05;;;;;;;20.11;62.79;101118.84;5024240;28;20044;-79
2022/09/07 08:19:46;;;;;;;14.40;5.25;;;;;;;20.36;61.60;101127.00;5032885;28;20098;-78
2022/09/07 08:22:12;;;;;;;8.48;4.70;;;;;;;19.95;62.54;101019.84;5012358;28;20732;-75
2022/09/07 08:24:37;;;;;;;10.80;5.93;;;;;;;19.78;61.88;100969.72;5027752;28;20564;-77
2022/09/07 08:27:04;;;;;;;7.47;4.35;;;;;;;20.19;63.36;101010.25;5030192;28;20048;-77
2022/09/07 08:29:30;;;;;;;19.40;5.63;;;;;;;20.17;63.16;100996.94;5032872;28;20041;-77
2022/09/07 08:31:55;;;;;;;10.70;5.88;;;;;;;21.06;62.30;101135.53;5029265;28;20139;-76
2022/09/07 08:34:21;;;;;;;9.32;4.57;;;;;;;21.00;60.19;101119.75;5032477;28;20044;-76
2022/09/07 08:36:47;;;;;;;7.30;4.80;;;;;;;21.19;60.95;101127.13;5019057;28;22031;-75
2022/09/07 08:39:15;;;;;;;17.70;5.68;;;;;;;20.85;59.59;101037.53;5028110;28;20048;-75
2022/09/07 08:42:04;;;;;;;9.23;5.10;;;;;;;21.32;58.70;101117.81;5030031;28;20046;-76
2022/09/07 08:44:53;;;;;;;8.77;5.15;;;;;;;20.58;58.90;100985.94;5031214;28;20060;-77
2022/09/07 08:47:32;;;;;;;12.55;4.40;;;;;;;20.56;57.60;100979.81;5007413;28;20123;-78
2022/09/07 08:50:09;;;;;;;14.88;4.78;;;;;;;21.18;56.52;101082.69;5027256;28;20384;-77
2022/09/07 08:52:47;;;;;;;7.93;3.75;;;;;;;21.34;56.83;101085.72;5025670;28;20036;-75
2022/09/07 08:55:25;;;;;;;15.18;4.78;;;;;;;20.96;55.90;100971.34;5024925;28;20055;-81
2022/09/07 08:58:16;;;;;;;6.57;3.92;;;;;;;21.73;56.00;101110.22;5021547;28;20049;-78
2022/09/07 09:00:42;;;;;;;7.80;4.95;;;;;;;21.73;55.76;101091.53;5027555;28;20049;-75
2022/09/07 09:03:28;;;;;;;14.13;5.38;;;;;;;21.89;56.88;101097.16;5031507;28;20059;-74
2022/09/07 09:06:03;;;;;;;16.92;4.45;;;;;;;21.59;56.27;101025.22;5025176;28;20312;-76
2022/09/07 09:09:17;;;;;;;9.45;4.78;;;;;;;21.97;55.45;101092.44;5031850;28;20118;-80
2022/09/07 09:12:22;;;;;;;7.88;4.57;;;;;;;22.01;56.63;101088.72;5010580;28;20056;-76
2022/09/07 09:15:25;;;;;;;9.45;4.85;;;;;;;20.92;55.53;100951.03;5008552;28;20061;-74
2022/09/07 09:18:03;;;;;;;11.80;5.75;;;;;;;21.54;55.92;101015.63;4989390;28;20058;-75
2022/09/07 09:20:48;;;;;;;5.97;4.13;;;;;;;22.12;55.16;101078.50;5011524;28;20046;-73
2022/09/07 09:23:17;;;;;;;10.23;5.22;;;;;;;21.40;55.75;100942.25;5013113;28;20063;-77
2022/09/07 09:25:56;;;;;;;10.13;5.05;;;;;;;22.30;55.48;101073.44;5012033;28;20888;-72
2022/09/07 09:28:22;;;;;;;10.52;3.95;;;;;;;21.00;54.63;100868.03;5014120;28;20040;-78
2022/09/07 09:30:49;;;;;;;7.32;4.45;;;;;;;22.32;55.54;101080.44;4988320;28;20049;-72
2022/09/07 09:33:17;;;;;;;8.52;4.85;;;;;;;22.61;55.26;101073.09;4994895;28;20509;-73
2022/09/07 09:35:45;;;;;;;5.97;3.65;;;;;;;21.97;54.77;100949.94;5006238;28;20132;-75
2022/09/07 09:38:29;;;;;;;5.93;3.72;;;;;;;22.62;52.56;101071.31;4991539;28;20045;-72
2022/09/07 09:40:59;;;;;;;7.18;4.10;;;;;;;21.87;53.35;100947.59;5011199;28;20044;-73
2022/09/07 09:43:30;;;;;;;6.32;3.33;;;;;;;22.64;52.97;101046.25;5011741;28;20037;-75
2022/09/07 09:45:56;;;;;;;5.30;3.42;;;;;;;22.85;51.99;101052.53;5010097;28;20101;-73
2022/09/07 09:48:36;;;;;;;6.13;3.88;;;;;;;22.99;52.66;101065.34;5009381;28;20053;-74
2022/09/07 09:51:05;;;;;;;9.60;4.30;;;;;;;22.88;52.38;101017.59;5010759;28;20102;-73
2022/09/07 09:53:36;;;;;;;5.90;3.22;;;;;;;22.56;52.34;100952.03;5001358;28;20078;-72
2022/09/07 09:56:05;;;;;;;9.20;4.82;;;;;;;22.71;51.73;100950.53;5014774;28;20033;-73
2022/09/07 09:58:36;;;;;;;10.68;4.55;;;;;;;23.13;50.04;101041.56;5015633;28;20025;-73
2022/09/07 10:01:31;;;;;;;10.27;5.57;;;;;;;22.74;51.34;100953.09;5009524;28;20098;-74
2022/09/07 10:04:16;;;;;;;6.70;4.38;;;;;;;23.53;51.76;101041.63;5013846;28;20464;-78
2022/09/07 10:07:02;;;;;;;6.43;4.90;;;;;;;22.94;50.58;100926.34;5015316;28;20277;-74
2022/09/07 10:09:55;;;;;;;10.32;4.20;;;;;;;23.67;51.98;101054.44;5011640;28;20095;-76
2022/09/07 10:12:20;;;;;;;7.50;4.20;;;;;;;23.83;51.50;101052.84;5007936;28;20081;-75
2022/09/07 10:14:46;;;;;;;8.70;3.78;;;;;;;23.34;51.08;100950.50;5012521;28;20103;-78
2022/09/07 10:17:41;;;;;;;11.30;4.25;;;;;;;23.81;50.27;101044.00;5010637;28;20045;-76
2022/09/07 10:20:15;;;;;;;7.32;4.93;;;;;;;23.64;50.44;101033.13;5011926;28;20069;-74
2022/09/07 10:22:55;;;;;;;8.85;5.35;;;;;;;23.53;51.00;101013.06;5004992;28;20685;-77
2022/09/07 10:25:43;;;;;;;10.43;4.88;;;;;;;24.31;48.35;101048.84;4998855;28;20054;-76
2022/09/07 10:28:17;;;;;;;8.60;4.10;;;;;;;24.84;49.19;101031.13;5011606;28;20155;-78
2022/09/07 10:31:05;;;;;;;11.30;4.25;;;;;;;25.37;48.46;101021.31;5011106;28;20057;-77
2022/09/07 10:33:33;;;;;;;13.18;4.07;;;;;;;25.19;45.60;101034.78;5013920;28;20077;-79
2022/09/07 10:36:13;;;;;;;8.30;5.72;;;;;;;24.14;47.42;101011.22;5008731;28;20502;-76
2022/09/07 10:38:46;;;;;;;6.07;4.35;;;;;;;25.28;47.75;101010.09;5011806;28;20056;-80
2022/09/07 10:41:15;;;;;;;10.18;4.82;;;;;;;25.22;46.88;100865.38;5025331;28;20049;-77
2022/09/07 10:43:43;;;;;;;6.72;4.15;;;;;;;26.55;46.10;101011.38;5014057;28;20572;-79
2022/09/07 10:46:47;;;;;;;5.95;4.22;;;;;;;26.76;44.79;101022.72;5012856;28;20489;-75
2022/09/07 10:49:18;;;;;;;23.45;6.13;;;;;;;25.41;44.53;100969.16;5009828;28;20053;-75
2022/09/07 10:52:09;;;;;;;20.80;7.00;;;;;;;25.65;43.99;100940.97;5001596;28;20137;-76
2022/09/07 10:54:58;;;;;;;10.35;5.10;;;;;;;26.79;44.71;100995.63;5006172;28;20186;-76
2022/09/07 10:57:39;;;;;;;7.35;4.65;;;;;;;27.25;45.23;100992.91;5007738;28;20064;-79
2022/09/07 11:00:10;;;;;;;7.57;4.60;;;;;;;27.38;43.70;100990.34;5009547;28;20060;-75
2022/09/07 11:02:48;;;;;;;6.43;4.88;;;;;;;27.19;42.30;100988.72;5017213;28;20187;-77
2022/09/07 11:05:30;;;;;;;12.30;4.57;;;;;;;26.00;42.46;100994.66;5012377;28;20313;-79
2022/09/07 11:08:07;;;;;;;8.93;4.87;;;;;;;26.59;43.50;100988.72;5022544;28;20056;-79
2022/09/07 11:11:10;;;;;;;6.82;4.72;;;;;;;27.16;42.29;100980.84;5007747;28;20473;-76
2022/09/07 11:13:40;;;;;;;7.32;4.43;;;;;;;27.14;43.17;100969.28;4999414;28;20412;-76
2022/09/07 11:16:24;;;;;;;10.63;4.47;;;;;;;27.21;43.34;100970.69;5025646;28;20049;-75
2022/09/07 11:18:55;;;;;;;14.80;5.38;;;;;;;25.93;41.73;100952.06;5032268;28;20056;-76
2022/09/07 11:21:29;;;;;;;7.25;4.22;;;;;;;26.49;41.89;100958.72;5026836;28;20155;-77
2022/09/07 11:24:00;;;;;;;8.48;4.60;;;;;;;26.12;41.60;100963.50;5034555;28;20072;-77
2022/09/07 11:26:34;;;;;;;10.38;4.45;;;;;;;26.50;41.60;100961.34;5032352;28;20072;-77
2022/09/07 11:29:15;;;;;;;6.28;5.43;;;;;;;26.28;41.99;100853.19;5012459;28;20429;-75
2022/09/07 11:31:44;;;;;;;7.82;4.20;;;;;;;27.00;40.36;100991.66;5034730;28;22215;-78
2022/09/07 11:34:16;;;;;;;6.82;4.40;;;;;;;26.81;42.00;100989.19;5034596;28;20037;-76
2022/09/07 11:36:49;;;;;;;15.73;6.63;;;;;;;26.67;41.48;100971.16;5028512;28;20710;-74
2022/09/07 11:39:25;;;;;;;8.85;4.20;;;;;;;26.57;40.48;100974.47;5019934;28;20076;-76